sensor_id;sensor_type;location;lat;lon;timestamp;temperature;humidity
5808;DHT22;2930;42.678;23.312;2022-08-19T00:02:23;24.00;66.30
5808;DHT22;2930;42.678;23.312;2022-08-19T00:04:49;24.00;67.30
5808;DHT22;2930;42.678;23.312;2022-08-19T00:07:18;23.90;69.00
5808;DHT22;2930;42.678;23.312;2022-08-19T00:09:44;23.80;67.10
5808;DHT22;2930;42.678;23.312;2022-08-19T00:12:12;23.70;66.90
5808;DHT22;2930;42.678;23.312;2022-08-19T00:14:38;23.70;65.60
5808;DHT22;2930;42.678;23.312;2022-08-19T00:17:06;23.70;65.90
5808;DHT22;2930;42.678;23.312;2022-08-19T00:19:32;23.60;65.70
5808;DHT22;2930;42.678;23.312;2022-08-19T00:21:57;23.60;65.90
5808;DHT22;2930;42.678;23.312;2022-08-19T00:24:23;23.60;66.10
5808;DHT22;2930;42.678;23.312;2022-08-19T00:26:49;23.60;65.70
5808;DHT22;2930;42.678;23.312;2022-08-19T00:29:18;23.60;66.50
5808;DHT22;2930;42.678;23.312;2022-08-19T00:31:45;23.60;66.90
5808;DHT22;2930;42.678;23.312;2022-08-19T00:34:13;23.60;67.30
5808;DHT22;2930;42.678;23.312;2022-08-19T00:36:40;23.60;66.90
5808;DHT22;2930;42.678;23.312;2022-08-19T00:39:07;23.60;67.90
5808;DHT22;2930;42.678;23.312;2022-08-19T00:41:33;23.60;68.50
5808;DHT22;2930;42.678;23.312;2022-08-19T00:44:09;23.50;68.30
5808;DHT22;2930;42.678;23.312;2022-08-19T00:46:37;23.50;67.20
5808;DHT22;2930;42.678;23.312;2022-08-19T00:49:09;23.50;67.00
5808;DHT22;2930;42.678;23.312;2022-08-19T00:51:35;23.40;67.20
5808;DHT22;2930;42.678;23.312;2022-08-19T00:54:02;23.40;68.40
5808;DHT22;2930;42.678;23.312;2022-08-19T00:56:28;23.40;68.20
5808;DHT22;2930;42.678;23.312;2022-08-19T00:58:56;23.40;67.80
5808;DHT22;2930;42.678;23.312;2022-08-19T01:01:22;23.30;67.50
5808;DHT22;2930;42.678;23.312;2022-08-19T01:03:47;23.30;67.80
5808;DHT22;2930;42.678;23.312;2022-08-19T01:06:13;23.30;69.30
5808;DHT22;2930;42.678;23.312;2022-08-19T01:08:40;23.30;68.10
5808;DHT22;2930;42.678;23.312;2022-08-19T01:11:06;23.20;68.30
5808;DHT22;2930;42.678;23.312;2022-08-19T01:13:33;23.20;68.00
5808;DHT22;2930;42.678;23.312;2022-08-19T01:16:05;23.10;68.00
5808;DHT22;2930;42.678;23.312;2022-08-19T01:18:32;23.10;68.50
5808;DHT22;2930;42.678;23.312;2022-08-19T01:21:05;23.10;68.70
5808;DHT22;2930;42.678;23.312;2022-08-19T01:23:32;23.10;68.90
5808;DHT22;2930;42.678;23.312;2022-08-19T01:26:16;23.00;68.60
5808;DHT22;2930;42.678;23.312;2022-08-19T01:28:44;23.00;69.20
5808;DHT22;2930;42.678;23.312;2022-08-19T01:31:16;23.00;68.90
5808;DHT22;2930;42.678;23.312;2022-08-19T01:33:42;22.90;68.80
5808;DHT22;2930;42.678;23.312;2022-08-19T01:36:12;22.90;68.60
5808;DHT22;2930;42.678;23.312;2022-08-19T01:38:42;22.80;70.00
5808;DHT22;2930;42.678;23.312;2022-08-19T01:41:09;22.80;70.00
5808;DHT22;2930;42.678;23.312;2022-08-19T01:43:35;22.70;69.60
5808;DHT22;2930;42.678;23.312;2022-08-19T01:46:02;22.70;69.20
5808;DHT22;2930;42.678;23.312;2022-08-19T01:48:34;22.60;68.60
5808;DHT22;2930;42.678;23.312;2022-08-19T01:51:00;22.60;68.80
5808;DHT22;2930;42.678;23.312;2022-08-19T01:53:25;22.50;68.90
5808;DHT22;2930;42.678;23.312;2022-08-19T01:55:51;22.50;69.00
5808;DHT22;2930;42.678;23.312;2022-08-19T01:58:21;22.50;69.80
5808;DHT22;2930;42.678;23.312;2022-08-19T02:00:48;22.40;68.60
5808;DHT22;2930;42.678;23.312;2022-08-19T02:03:14;22.40;68.80
5808;DHT22;2930;42.678;23.312;2022-08-19T02:05:40;22.30;68.80
5808;DHT22;2930;42.678;23.312;2022-08-19T02:08:07;22.30;68.70
5808;DHT22;2930;42.678;23.312;2022-08-19T02:10:33;22.30;69.00
5808;DHT22;2930;42.678;23.312;2022-08-19T02:12:59;22.30;70.20
5808;DHT22;2930;42.678;23.312;2022-08-19T02:15:24;22.30;69.90
5808;DHT22;2930;42.678;23.312;2022-08-19T02:17:51;22.20;70.20
5808;DHT22;2930;42.678;23.312;2022-08-19T02:20:17;22.20;70.50
5808;DHT22;2930;42.678;23.312;2022-08-19T02:22:44;22.20;70.80
5808;DHT22;2930;42.678;23.312;2022-08-19T02:25:13;22.20;71.70
5808;DHT22;2930;42.678;23.312;2022-08-19T02:27:40;22.30;71.40
5808;DHT22;2930;42.678;23.312;2022-08-19T02:30:09;22.20;71.90
5808;DHT22;2930;42.678;23.312;2022-08-19T02:32:35;22.20;72.00
5808;DHT22;2930;42.678;23.312;2022-08-19T02:35:01;22.20;71.90
5808;DHT22;2930;42.678;23.312;2022-08-19T02:37:27;22.20;71.90
5808;DHT22;2930;42.678;23.312;2022-08-19T02:40:11;22.20;70.90
5808;DHT22;2930;42.678;23.312;2022-08-19T02:42:37;22.10;71.00
5808;DHT22;2930;42.678;23.312;2022-08-19T02:45:03;22.10;70.90
5808;DHT22;2930;42.678;23.312;2022-08-19T02:47:30;22.00;70.90
5808;DHT22;2930;42.678;23.312;2022-08-19T02:49:55;22.00;71.40
5808;DHT22;2930;42.678;23.312;2022-08-19T02:52:21;22.00;70.80
5808;DHT22;2930;42.678;23.312;2022-08-19T02:54:48;22.00;72.20
5808;DHT22;2930;42.678;23.312;2022-08-19T02:57:15;22.00;71.40
5808;DHT22;2930;42.678;23.312;2022-08-19T02:59:40;22.00;72.50
5808;DHT22;2930;42.678;23.312;2022-08-19T03:02:06;21.90;72.70
5808;DHT22;2930;42.678;23.312;2022-08-19T03:04:32;21.90;72.80
5808;DHT22;2930;42.678;23.312;2022-08-19T03:06:57;21.90;73.60
5808;DHT22;2930;42.678;23.312;2022-08-19T03:09:23;21.80;72.90
5808;DHT22;2930;42.678;23.312;2022-08-19T03:11:49;21.70;72.50
5808;DHT22;2930;42.678;23.312;2022-08-19T03:14:15;21.70;72.40
5808;DHT22;2930;42.678;23.312;2022-08-19T03:16:44;21.60;72.00
5808;DHT22;2930;42.678;23.312;2022-08-19T03:19:10;21.60;73.10
5808;DHT22;2930;42.678;23.312;2022-08-19T03:21:36;21.50;72.90
5808;DHT22;2930;42.678;23.312;2022-08-19T03:24:06;21.50;72.50
5808;DHT22;2930;42.678;23.312;2022-08-19T03:26:32;21.40;71.80
5808;DHT22;2930;42.678;23.312;2022-08-19T03:29:03;21.40;71.70
5808;DHT22;2930;42.678;23.312;2022-08-19T03:31:29;21.40;72.00
5808;DHT22;2930;42.678;23.312;2022-08-19T03:33:56;21.40;73.40
5808;DHT22;2930;42.678;23.312;2022-08-19T03:36:24;21.40;74.00
5808;DHT22;2930;42.678;23.312;2022-08-19T03:38:53;21.40;73.80
5808;DHT22;2930;42.678;23.312;2022-08-19T03:41:41;21.40;73.90
5808;DHT22;2930;42.678;23.312;2022-08-19T03:44:06;21.40;74.00
5808;DHT22;2930;42.678;23.312;2022-08-19T03:46:34;21.30;73.70
5808;DHT22;2930;42.678;23.312;2022-08-19T03:49:02;21.30;72.90
5808;DHT22;2930;42.678;23.312;2022-08-19T03:51:36;21.30;73.10
5808;DHT22;2930;42.678;23.312;2022-08-19T03:54:04;21.30;73.00
5808;DHT22;2930;42.678;23.312;2022-08-19T03:56:30;21.30;73.00
5808;DHT22;2930;42.678;23.312;2022-08-19T03:58:57;21.30;73.50
5808;DHT22;2930;42.678;23.312;2022-08-19T04:01:26;21.30;74.20
5808;DHT22;2930;42.678;23.312;2022-08-19T04:03:53;21.30;73.30
5808;DHT22;2930;42.678;23.312;2022-08-19T04:06:27;21.20;73.80
5808;DHT22;2930;42.678;23.312;2022-08-19T04:08:54;21.20;75.20
5808;DHT22;2930;42.678;23.312;2022-08-19T04:11:24;21.20;76.50
5808;DHT22;2930;42.678;23.312;2022-08-19T04:13:52;21.30;75.70
5808;DHT22;2930;42.678;23.312;2022-08-19T04:16:19;21.20;74.70
5808;DHT22;2930;42.678;23.312;2022-08-19T04:18:45;21.20;75.10
5808;DHT22;2930;42.678;23.312;2022-08-19T04:21:16;21.20;75.10
5808;DHT22;2930;42.678;23.312;2022-08-19T04:23:42;21.20;74.00
5808;DHT22;2930;42.678;23.312;2022-08-19T04:26:15;21.20;74.80
5808;DHT22;2930;42.678;23.312;2022-08-19T04:28:42;21.20;73.70
5808;DHT22;2930;42.678;23.312;2022-08-19T04:31:13;21.20;74.00
5808;DHT22;2930;42.678;23.312;2022-08-19T04:33:39;21.30;73.80
5808;DHT22;2930;42.678;23.312;2022-08-19T04:36:05;21.30;73.90
5808;DHT22;2930;42.678;23.312;2022-08-19T04:38:31;21.30;74.50
5808;DHT22;2930;42.678;23.312;2022-08-19T04:40:57;21.40;73.90
5808;DHT22;2930;42.678;23.312;2022-08-19T04:43:41;21.40;75.40
5808;DHT22;2930;42.678;23.312;2022-08-19T04:46:12;21.40;74.70
5808;DHT22;2930;42.678;23.312;2022-08-19T04:48:39;21.50;73.70
5808;DHT22;2930;42.678;23.312;2022-08-19T04:51:10;21.50;74.10
5808;DHT22;2930;42.678;23.312;2022-08-19T04:53:37;21.60;73.30
5808;DHT22;2930;42.678;23.312;2022-08-19T04:56:13;21.60;73.80
5808;DHT22;2930;42.678;23.312;2022-08-19T04:58:41;21.70;73.50
5808;DHT22;2930;42.678;23.312;2022-08-19T05:01:13;21.70;73.90
5808;DHT22;2930;42.678;23.312;2022-08-19T05:03:39;21.70;74.50
5808;DHT22;2930;42.678;23.312;2022-08-19T05:06:11;21.80;74.40
5808;DHT22;2930;42.678;23.312;2022-08-19T05:08:39;21.90;73.90
5808;DHT22;2930;42.678;23.312;2022-08-19T05:11:44;21.90;74.60
5808;DHT22;2930;42.678;23.312;2022-08-19T05:14:10;22.00;75.50
5808;DHT22;2930;42.678;23.312;2022-08-19T05:16:38;22.00;74.50
5808;DHT22;2930;42.678;23.312;2022-08-19T05:19:03;22.00;74.80
5808;DHT22;2930;42.678;23.312;2022-08-19T05:21:48;22.00;74.70
5808;DHT22;2930;42.678;23.312;2022-08-19T05:24:32;22.10;74.70
5808;DHT22;2930;42.678;23.312;2022-08-19T05:27:01;22.10;74.60
5808;DHT22;2930;42.678;23.312;2022-08-19T05:29:29;22.10;74.20
5808;DHT22;2930;42.678;23.312;2022-08-19T05:31:55;22.20;74.10
5808;DHT22;2930;42.678;23.312;2022-08-19T05:34:22;22.20;73.90
5808;DHT22;2930;42.678;23.312;2022-08-19T05:36:51;22.30;73.90
5808;DHT22;2930;42.678;23.312;2022-08-19T05:39:21;22.40;74.00
5808;DHT22;2930;42.678;23.312;2022-08-19T05:41:49;22.40;73.80
5808;DHT22;2930;42.678;23.312;2022-08-19T05:44:16;22.50;73.60
5808;DHT22;2930;42.678;23.312;2022-08-19T05:46:43;22.50;73.90
5808;DHT22;2930;42.678;23.312;2022-08-19T05:49:12;22.60;73.80
5808;DHT22;2930;42.678;23.312;2022-08-19T05:51:38;22.60;73.60
5808;DHT22;2930;42.678;23.312;2022-08-19T05:54:05;22.70;73.50
5808;DHT22;2930;42.678;23.312;2022-08-19T05:56:33;22.80;73.90
5808;DHT22;2930;42.678;23.312;2022-08-19T05:59:02;22.90;74.00
5808;DHT22;2930;42.678;23.312;2022-08-19T06:01:27;22.90;73.60
5808;DHT22;2930;42.678;23.312;2022-08-19T06:03:53;22.90;73.60
5808;DHT22;2930;42.678;23.312;2022-08-19T06:06:20;23.00;73.40
5808;DHT22;2930;42.678;23.312;2022-08-19T06:08:45;23.00;73.40
5808;DHT22;2930;42.678;23.312;2022-08-19T06:14:07;23.10;72.60
5808;DHT22;2930;42.678;23.312;2022-08-19T06:16:39;23.20;72.70
5808;DHT22;2930;42.678;23.312;2022-08-19T06:19:08;23.30;72.90
5808;DHT22;2930;42.678;23.312;2022-08-19T06:21:36;23.40;72.70
5808;DHT22;2930;42.678;23.312;2022-08-19T06:24:06;23.40;72.70
5808;DHT22;2930;42.678;23.312;2022-08-19T06:26:34;23.50;72.70
5808;DHT22;2930;42.678;23.312;2022-08-19T06:29:00;23.50;72.70
5808;DHT22;2930;42.678;23.312;2022-08-19T06:31:27;23.60;72.60
5808;DHT22;2930;42.678;23.312;2022-08-19T06:33:53;23.70;72.40
5808;DHT22;2930;42.678;23.312;2022-08-19T06:36:25;23.70;72.30
5808;DHT22;2930;42.678;23.312;2022-08-19T06:38:58;23.80;71.70
5808;DHT22;2930;42.678;23.312;2022-08-19T06:41:26;23.90;72.40
5808;DHT22;2930;42.678;23.312;2022-08-19T06:43:53;24.00;71.90
5808;DHT22;2930;42.678;23.312;2022-08-19T06:46:20;24.10;71.90
5808;DHT22;2930;42.678;23.312;2022-08-19T06:48:46;24.10;71.70
5808;DHT22;2930;42.678;23.312;2022-08-19T06:51:14;24.20;71.70
5808;DHT22;2930;42.678;23.312;2022-08-19T06:53:42;24.30;71.60
5808;DHT22;2930;42.678;23.312;2022-08-19T06:56:12;24.30;71.40
5808;DHT22;2930;42.678;23.312;2022-08-19T06:58:38;24.40;71.60
5808;DHT22;2930;42.678;23.312;2022-08-19T07:01:04;24.50;71.50
5808;DHT22;2930;42.678;23.312;2022-08-19T07:03:32;24.60;71.60
5808;DHT22;2930;42.678;23.312;2022-08-19T07:06:03;24.60;71.40
5808;DHT22;2930;42.678;23.312;2022-08-19T07:08:29;24.70;71.00
5808;DHT22;2930;42.678;23.312;2022-08-19T07:10:55;24.80;71.50
5808;DHT22;2930;42.678;23.312;2022-08-19T07:13:21;24.90;71.50
5808;DHT22;2930;42.678;23.312;2022-08-19T07:15:48;24.90;71.00
5808;DHT22;2930;42.678;23.312;2022-08-19T07:18:17;25.00;71.00
5808;DHT22;2930;42.678;23.312;2022-08-19T07:20:43;25.10;70.90
5808;DHT22;2930;42.678;23.312;2022-08-19T07:23:09;25.20;70.80
5808;DHT22;2930;42.678;23.312;2022-08-19T07:25:36;25.30;71.30
5808;DHT22;2930;42.678;23.312;2022-08-19T07:28:03;25.30;70.30
5808;DHT22;2930;42.678;23.312;2022-08-19T07:30:29;25.40;70.40
5808;DHT22;2930;42.678;23.312;2022-08-19T07:32:55;25.50;69.70
5808;DHT22;2930;42.678;23.312;2022-08-19T07:35:22;25.60;69.90
5808;DHT22;2930;42.678;23.312;2022-08-19T07:37:49;25.70;69.60
5808;DHT22;2930;42.678;23.312;2022-08-19T07:40:15;25.80;69.60
5808;DHT22;2930;42.678;23.312;2022-08-19T07:42:41;25.80;69.70
5808;DHT22;2930;42.678;23.312;2022-08-19T07:45:09;25.90;69.70
5808;DHT22;2930;42.678;23.312;2022-08-19T07:47:35;26.00;69.40
5808;DHT22;2930;42.678;23.312;2022-08-19T07:50:03;26.10;69.40
5808;DHT22;2930;42.678;23.312;2022-08-19T07:52:30;26.10;69.10
5808;DHT22;2930;42.678;23.312;2022-08-19T07:54:56;26.20;68.90
5808;DHT22;2930;42.678;23.312;2022-08-19T07:57:22;26.30;68.50
5808;DHT22;2930;42.678;23.312;2022-08-19T07:59:49;26.40;68.20
5808;DHT22;2930;42.678;23.312;2022-08-19T08:02:15;26.50;67.90
5808;DHT22;2930;42.678;23.312;2022-08-19T08:04:41;26.60;67.80
5808;DHT22;2930;42.678;23.312;2022-08-19T08:07:25;26.70;67.90
5808;DHT22;2930;42.678;23.312;2022-08-19T08:10:10;26.80;68.00
5808;DHT22;2930;42.678;23.312;2022-08-19T08:12:38;26.90;66.90
5808;DHT22;2930;42.678;23.312;2022-08-19T08:15:11;26.90;66.60
5808;DHT22;2930;42.678;23.312;2022-08-19T08:17:37;27.00;66.10
5808;DHT22;2930;42.678;23.312;2022-08-19T08:20:06;27.10;66.60
5808;DHT22;2930;42.678;23.312;2022-08-19T08:22:33;27.20;66.60
5808;DHT22;2930;42.678;23.312;2022-08-19T08:25:20;27.30;66.70
5808;DHT22;2930;42.678;23.312;2022-08-19T08:27:48;27.50;66.70
5808;DHT22;2930;42.678;23.312;2022-08-19T08:30:23;27.60;67.00
5808;DHT22;2930;42.678;23.312;2022-08-19T08:32:50;27.70;64.60
5808;DHT22;2930;42.678;23.312;2022-08-19T08:35:19;27.80;64.50
5808;DHT22;2930;42.678;23.312;2022-08-19T08:37:47;28.00;64.70
5808;DHT22;2930;42.678;23.312;2022-08-19T08:40:31;28.20;65.00
5808;DHT22;2930;42.678;23.312;2022-08-19T08:43:07;28.40;64.90
5808;DHT22;2930;42.678;23.312;2022-08-19T08:45:38;28.50;64.50
5808;DHT22;2930;42.678;23.312;2022-08-19T08:48:36;28.60;65.10
5808;DHT22;2930;42.678;23.312;2022-08-19T08:51:07;28.80;64.00
5808;DHT22;2930;42.678;23.312;2022-08-19T08:53:36;29.00;64.60
5808;DHT22;2930;42.678;23.312;2022-08-19T08:56:06;29.20;63.40
5808;DHT22;2930;42.678;23.312;2022-08-19T08:58:47;29.30;63.20
5808;DHT22;2930;42.678;23.312;2022-08-19T09:01:14;29.50;62.20
5808;DHT22;2930;42.678;23.312;2022-08-19T09:03:42;29.70;62.80
5808;DHT22;2930;42.678;23.312;2022-08-19T09:06:51;29.80;62.80
5808;DHT22;2930;42.678;23.312;2022-08-19T09:14:36;30.30;61.50
5808;DHT22;2930;42.678;23.312;2022-08-19T09:17:09;30.60;60.80
5808;DHT22;2930;42.678;23.312;2022-08-19T09:22:37;31.10;59.20
5808;DHT22;2930;42.678;23.312;2022-08-19T09:25:04;31.50;58.20
5808;DHT22;2930;42.678;23.312;2022-08-19T09:27:30;31.80;57.10
5808;DHT22;2930;42.678;23.312;2022-08-19T09:29:58;32.10;55.50
5808;DHT22;2930;42.678;23.312;2022-08-19T09:32:24;32.50;56.00
5808;DHT22;2930;42.678;23.312;2022-08-19T09:34:51;32.90;56.00
5808;DHT22;2930;42.678;23.312;2022-08-19T09:37:20;33.50;53.70
5808;DHT22;2930;42.678;23.312;2022-08-19T09:39:46;34.10;52.20
5808;DHT22;2930;42.678;23.312;2022-08-19T09:42:12;34.70;51.30
5808;DHT22;2930;42.678;23.312;2022-08-19T09:44:40;35.30;51.40
5808;DHT22;2930;42.678;23.312;2022-08-19T09:47:06;36.10;51.50
5808;DHT22;2930;42.678;23.312;2022-08-19T09:49:33;36.80;51.40
5808;DHT22;2930;42.678;23.312;2022-08-19T09:51:59;37.50;50.10
5808;DHT22;2930;42.678;23.312;2022-08-19T09:54:25;38.20;48.60
5808;DHT22;2930;42.678;23.312;2022-08-19T09:56:55;38.90;48.30
5808;DHT22;2930;42.678;23.312;2022-08-19T09:59:21;39.50;45.50
5808;DHT22;2930;42.678;23.312;2022-08-19T10:01:47;40.00;45.40
5808;DHT22;2930;42.678;23.312;2022-08-19T10:04:13;40.50;44.60
5808;DHT22;2930;42.678;23.312;2022-08-19T10:06:39;40.70;46.00
5808;DHT22;2930;42.678;23.312;2022-08-19T10:09:06;40.80;44.30
5808;DHT22;2930;42.678;23.312;2022-08-19T10:11:34;41.10;42.70
5808;DHT22;2930;42.678;23.312;2022-08-19T10:14:04;41.20;44.80
5808;DHT22;2930;42.678;23.312;2022-08-19T10:16:33;41.30;45.50
5808;DHT22;2930;42.678;23.312;2022-08-19T10:18:59;41.70;43.00
5808;DHT22;2930;42.678;23.312;2022-08-19T10:21:28;41.90;44.40
5808;DHT22;2930;42.678;23.312;2022-08-19T10:23:56;42.00;43.80
5808;DHT22;2930;42.678;23.312;2022-08-19T10:26:28;42.30;42.70
5808;DHT22;2930;42.678;23.312;2022-08-19T10:28:54;42.50;44.00
5808;DHT22;2930;42.678;23.312;2022-08-19T10:31:26;42.40;43.90
5808;DHT22;2930;42.678;23.312;2022-08-19T10:33:52;42.60;42.30
5808;DHT22;2930;42.678;23.312;2022-08-19T10:36:26;42.90;41.50
5808;DHT22;2930;42.678;23.312;2022-08-19T10:38:55;43.30;44.40
5808;DHT22;2930;42.678;23.312;2022-08-19T10:41:25;43.80;45.20
5808;DHT22;2930;42.678;23.312;2022-08-19T10:43:55;44.40;44.10
5808;DHT22;2930;42.678;23.312;2022-08-19T10:46:23;44.80;43.70
5808;DHT22;2930;42.678;23.312;2022-08-19T10:48:51;45.10;41.20
5808;DHT22;2930;42.678;23.312;2022-08-19T10:51:17;45.30;41.70
5808;DHT22;2930;42.678;23.312;2022-08-19T10:54:03;45.60;42.20
5808;DHT22;2930;42.678;23.312;2022-08-19T10:56:29;46.00;40.50
5808;DHT22;2930;42.678;23.312;2022-08-19T10:59:14;46.40;40.60
5808;DHT22;2930;42.678;23.312;2022-08-19T11:01:43;46.80;41.50
5808;DHT22;2930;42.678;23.312;2022-08-19T11:04:09;46.70;38.30
5808;DHT22;2930;42.678;23.312;2022-08-19T11:06:37;46.60;39.50
5808;DHT22;2930;42.678;23.312;2022-08-19T11:09:07;46.30;39.20
5808;DHT22;2930;42.678;23.312;2022-08-19T11:11:33;46.20;42.10
5808;DHT22;2930;42.678;23.312;2022-08-19T11:14:09;46.20;40.60
5808;DHT22;2930;42.678;23.312;2022-08-19T11:16:35;46.30;41.50
5808;DHT22;2930;42.678;23.312;2022-08-19T11:19:02;46.50;40.20
5808;DHT22;2930;42.678;23.312;2022-08-19T11:21:33;46.70;40.50
5808;DHT22;2930;42.678;23.312;2022-08-19T11:24:06;46.50;38.70
5808;DHT22;2930;42.678;23.312;2022-08-19T11:26:35;46.30;39.30
5808;DHT22;2930;42.678;23.312;2022-08-19T11:29:02;46.10;40.70
5808;DHT22;2930;42.678;23.312;2022-08-19T11:31:31;45.90;40.30
5808;DHT22;2930;42.678;23.312;2022-08-19T11:33:59;45.80;38.80
5808;DHT22;2930;42.678;23.312;2022-08-19T11:36:25;45.70;39.70
5808;DHT22;2930;42.678;23.312;2022-08-19T11:38:52;45.70;40.20
5808;DHT22;2930;42.678;23.312;2022-08-19T11:41:21;45.70;39.80
5808;DHT22;2930;42.678;23.312;2022-08-19T11:43:49;46.00;41.30
5808;DHT22;2930;42.678;23.312;2022-08-19T11:46:16;46.30;38.40
5808;DHT22;2930;42.678;23.312;2022-08-19T11:48:43;46.40;40.10
5808;DHT22;2930;42.678;23.312;2022-08-19T11:51:15;46.60;39.10
5808;DHT22;2930;42.678;23.312;2022-08-19T11:53:41;46.70;40.90
5808;DHT22;2930;42.678;23.312;2022-08-19T11:56:08;47.00;38.60
5808;DHT22;2930;42.678;23.312;2022-08-19T11:58:35;47.20;38.70
5808;DHT22;2930;42.678;23.312;2022-08-19T12:01:01;47.50;38.50
5808;DHT22;2930;42.678;23.312;2022-08-19T12:03:30;47.80;38.50
5808;DHT22;2930;42.678;23.312;2022-08-19T12:05:56;47.70;38.00
5808;DHT22;2930;42.678;23.312;2022-08-19T12:08:22;47.60;39.80
5808;DHT22;2930;42.678;23.312;2022-08-19T12:10:48;47.60;38.30
5808;DHT22;2930;42.678;23.312;2022-08-19T12:13:14;47.40;37.80
5808;DHT22;2930;42.678;23.312;2022-08-19T12:15:44;47.10;38.50
5808;DHT22;2930;42.678;23.312;2022-08-19T12:18:11;46.90;38.00
5808;DHT22;2930;42.678;23.312;2022-08-19T12:20:40;46.60;38.40
5808;DHT22;2930;42.678;23.312;2022-08-19T12:23:07;46.50;39.70
5808;DHT22;2930;42.678;23.312;2022-08-19T12:25:35;46.50;38.50
5808;DHT22;2930;42.678;23.312;2022-08-19T12:28:02;46.50;38.80
5808;DHT22;2930;42.678;23.312;2022-08-19T12:30:27;46.60;39.30
5808;DHT22;2930;42.678;23.312;2022-08-19T12:32:53;46.80;39.00
5808;DHT22;2930;42.678;23.312;2022-08-19T12:35:20;47.00;38.40
5808;DHT22;2930;42.678;23.312;2022-08-19T12:37:46;47.30;40.60
5808;DHT22;2930;42.678;23.312;2022-08-19T12:40:14;47.60;38.70
5808;DHT22;2930;42.678;23.312;2022-08-19T12:42:40;48.00;38.20
5808;DHT22;2930;42.678;23.312;2022-08-19T12:45:10;48.40;37.40
5808;DHT22;2930;42.678;23.312;2022-08-19T12:47:37;48.80;38.10
5808;DHT22;2930;42.678;23.312;2022-08-19T12:50:03;48.80;36.50
5808;DHT22;2930;42.678;23.312;2022-08-19T12:52:35;48.70;37.10
5808;DHT22;2930;42.678;23.312;2022-08-19T12:55:04;48.80;38.40
5808;DHT22;2930;42.678;23.312;2022-08-19T12:57:30;49.10;37.80
5808;DHT22;2930;42.678;23.312;2022-08-19T13:02:38;49.50;36.70
5808;DHT22;2930;42.678;23.312;2022-08-19T13:05:05;49.70;38.30
5808;DHT22;2930;42.678;23.312;2022-08-19T13:07:33;50.00;38.30
5808;DHT22;2930;42.678;23.312;2022-08-19T13:10:00;50.30;39.20
5808;DHT22;2930;42.678;23.312;2022-08-19T13:12:26;50.50;36.80
5808;DHT22;2930;42.678;23.312;2022-08-19T13:14:53;50.50;36.10
5808;DHT22;2930;42.678;23.312;2022-08-19T13:17:19;50.50;36.00
5808;DHT22;2930;42.678;23.312;2022-08-19T13:19:45;50.60;35.60
5808;DHT22;2930;42.678;23.312;2022-08-19T13:22:11;50.80;35.60
5808;DHT22;2930;42.678;23.312;2022-08-19T13:24:37;50.90;37.20
5808;DHT22;2930;42.678;23.312;2022-08-19T13:27:04;51.00;37.80
5808;DHT22;2930;42.678;23.312;2022-08-19T13:29:30;51.10;36.00
5808;DHT22;2930;42.678;23.312;2022-08-19T13:32:14;50.80;34.90
5808;DHT22;2930;42.678;23.312;2022-08-19T13:34:58;50.50;36.70
5808;DHT22;2930;42.678;23.312;2022-08-19T13:37:24;50.00;36.00
5808;DHT22;2930;42.678;23.312;2022-08-19T13:40:12;49.40;36.10
5808;DHT22;2930;42.678;23.312;2022-08-19T13:42:41;49.00;36.50
5808;DHT22;2930;42.678;23.312;2022-08-19T13:45:08;48.70;36.50
5808;DHT22;2930;42.678;23.312;2022-08-19T13:47:34;48.60;37.50
5808;DHT22;2930;42.678;23.312;2022-08-19T13:50:03;48.50;37.50
5808;DHT22;2930;42.678;23.312;2022-08-19T13:52:28;48.10;37.00
5808;DHT22;2930;42.678;23.312;2022-08-19T13:54:54;47.80;37.70
5808;DHT22;2930;42.678;23.312;2022-08-19T13:57:20;47.30;38.30
5808;DHT22;2930;42.678;23.312;2022-08-19T13:59:46;47.10;37.80
5808;DHT22;2930;42.678;23.312;2022-08-19T14:02:12;47.00;37.70
5808;DHT22;2930;42.678;23.312;2022-08-19T14:04:37;47.20;37.60
5808;DHT22;2930;42.678;23.312;2022-08-19T14:07:04;47.10;38.30
5808;DHT22;2930;42.678;23.312;2022-08-19T14:09:30;47.20;38.80
5808;DHT22;2930;42.678;23.312;2022-08-19T14:11:56;47.20;37.70
5808;DHT22;2930;42.678;23.312;2022-08-19T14:14:21;47.30;37.30
5808;DHT22;2930;42.678;23.312;2022-08-19T14:16:47;47.40;37.70
5808;DHT22;2930;42.678;23.312;2022-08-19T14:19:13;47.30;37.40
5808;DHT22;2930;42.678;23.312;2022-08-19T14:21:39;47.00;38.20
5808;DHT22;2930;42.678;23.312;2022-08-19T14:24:07;47.00;37.90
5808;DHT22;2930;42.678;23.312;2022-08-19T14:26:33;47.00;38.00
5808;DHT22;2930;42.678;23.312;2022-08-19T14:28:59;47.10;37.60
5808;DHT22;2930;42.678;23.312;2022-08-19T14:31:24;47.20;37.30
5808;DHT22;2930;42.678;23.312;2022-08-19T14:33:51;47.20;38.10
5808;DHT22;2930;42.678;23.312;2022-08-19T14:36:18;47.20;37.70
5808;DHT22;2930;42.678;23.312;2022-08-19T14:38:45;47.00;37.60
5808;DHT22;2930;42.678;23.312;2022-08-19T14:41:17;46.80;37.30
5808;DHT22;2930;42.678;23.312;2022-08-19T14:43:46;46.70;37.50
5808;DHT22;2930;42.678;23.312;2022-08-19T14:46:17;46.50;38.30
5808;DHT22;2930;42.678;23.312;2022-08-19T14:48:46;46.00;38.70
5808;DHT22;2930;42.678;23.312;2022-08-19T14:51:12;45.80;38.90
5808;DHT22;2930;42.678;23.312;2022-08-19T14:53:38;45.50;39.60
5808;DHT22;2930;42.678;23.312;2022-08-19T14:56:13;45.40;39.40
5808;DHT22;2930;42.678;23.312;2022-08-19T14:58:40;45.10;39.00
5808;DHT22;2930;42.678;23.312;2022-08-19T15:01:07;45.20;39.50
5808;DHT22;2930;42.678;23.312;2022-08-19T15:03:33;45.00;39.00
5808;DHT22;2930;42.678;23.312;2022-08-19T15:06:01;44.40;39.10
5808;DHT22;2930;42.678;23.312;2022-08-19T15:08:29;43.90;40.10
5808;DHT22;2930;42.678;23.312;2022-08-19T15:10:56;43.70;40.50
5808;DHT22;2930;42.678;23.312;2022-08-19T15:13:23;43.40;40.20
5808;DHT22;2930;42.678;23.312;2022-08-19T15:15:50;43.30;40.40
5808;DHT22;2930;42.678;23.312;2022-08-19T15:18:17;43.20;40.20
5808;DHT22;2930;42.678;23.312;2022-08-19T15:20:44;42.80;40.80
5808;DHT22;2930;42.678;23.312;2022-08-19T15:23:10;42.40;42.00
5808;DHT22;2930;42.678;23.312;2022-08-19T15:25:36;42.20;42.20
5808;DHT22;2930;42.678;23.312;2022-08-19T15:28:03;42.00;42.20
5808;DHT22;2930;42.678;23.312;2022-08-19T15:30:29;41.90;42.60
5808;DHT22;2930;42.678;23.312;2022-08-19T15:32:56;41.50;42.40
5808;DHT22;2930;42.678;23.312;2022-08-19T15:35:23;41.30;43.10
5808;DHT22;2930;42.678;23.312;2022-08-19T15:37:50;41.20;42.20
5808;DHT22;2930;42.678;23.312;2022-08-19T15:40:18;41.10;43.10
5808;DHT22;2930;42.678;23.312;2022-08-19T15:42:45;40.80;43.30
5808;DHT22;2930;42.678;23.312;2022-08-19T15:45:13;40.60;43.00
5808;DHT22;2930;42.678;23.312;2022-08-19T15:47:39;40.30;43.60
5808;DHT22;2930;42.678;23.312;2022-08-19T15:50:10;40.00;44.10
5808;DHT22;2930;42.678;23.312;2022-08-19T15:52:46;39.90;44.20
5808;DHT22;2930;42.678;23.312;2022-08-19T15:55:12;39.80;44.50
5808;DHT22;2930;42.678;23.312;2022-08-19T15:57:38;39.60;44.50
5808;DHT22;2930;42.678;23.312;2022-08-19T16:00:23;39.60;44.10
5808;DHT22;2930;42.678;23.312;2022-08-19T16:03:15;39.40;45.00
5808;DHT22;2930;42.678;23.312;2022-08-19T16:05:59;39.00;45.00
5808;DHT22;2930;42.678;23.312;2022-08-19T16:08:44;38.80;44.90